Time;durP1;ratioP1;P1;durP2;ratioP2;P2;SDS_P1;SDS_P2;PMS_P1;PMS_P2;Temp;Humidity;BMP_temperature;BMP_pressure;BME280_temperature;BME280_humidity;BME280_pressure;Samples;Min_cycle;Max_cycle;Signal;HPM_P1;HPM_P2
2022/06/18 00:03:27;;;;;;;;;;;18.90;94.90;;;17.79;56.31;96283.03;10474225;28;1928;-74
2022/06/18 00:08:30;;;;;;;;;;;18.70;95.50;;;17.82;56.68;96272.34;10472807;28;1892;-74
2022/06/18 00:13:41;;;;;;;;;;;18.70;96.20;;;17.78;56.69;96271.34;10471053;28;1786;-75
2022/06/18 00:18:44;;;;;;;;;;;18.70;96.20;;;17.71;57.40;96270.97;10471369;28;1983;-76
2022/06/18 00:23:48;;;;;;;;;;;18.80;96.70;;;17.66;57.58;96273.75;10473102;28;1893;-74
2022/06/18 00:28:51;;;;;;;;;;;18.60;96.70;;;17.54;58.37;96270.78;10490500;28;1913;-74
2022/06/18 00:33:54;;;;;;;;;;;18.00;99.90;;;17.50;58.29;96280.66;10469887;28;2068;-75
2022/06/18 00:38:57;;;;;;;;;;;18.50;98.80;;;17.37;59.82;96270.59;10471608;28;1945;-74
2022/06/18 00:44:01;;;;;;;;;;;18.30;98.00;;;17.33;60.36;96275.06;10478522;28;1782;-74
2022/06/18 00:49:04;;;;;;;;;;;18.40;98.60;;;17.24;60.91;96270.34;10484256;28;1959;-75
2022/06/18 00:54:06;;;;;;;;;;;18.10;99.90;;;17.20;61.10;96274.75;10473192;28;1737;-74
2022/06/18 00:59:25;;;;;;;;;;;18.20;99.90;;;17.07;61.99;96272.88;10469968;28;1894;-75
2022/06/18 01:04:28;;;;;;;;;;;18.10;99.90;;;16.99;62.65;96268.16;10474223;28;1872;-74
2022/06/18 01:09:31;;;;;;;;;;;18.00;99.90;;;16.85;63.50;96270.03;10469424;28;1975;-74
2022/06/18 01:14:35;;;;;;;;;;;17.90;99.90;;;16.81;64.55;96264.41;10464912;28;2002;-74
2022/06/18 01:19:39;;;;;;;;;;;17.90;99.90;;;16.80;64.47;96275.59;10470030;28;1989;-75
2022/06/18 01:24:42;;;;;;;;;;;17.70;99.90;;;16.71;65.20;96268.13;10472525;28;2009;-74
2022/06/18 01:29:51;;;;;;;;;;;17.70;99.90;;;16.59;65.34;96278.63;10473618;28;1959;-75
2022/06/18 01:34:57;;;;;;;;;;;17.60;99.90;;;16.48;66.57;96279.94;10475148;28;1876;-75
2022/06/18 01:40:00;;;;;;;;;;;17.50;99.90;;;16.43;66.54;96285.44;10473013;28;1986;-74
2022/06/18 01:45:03;;;;;;;;;;;17.40;99.90;;;16.28;67.18;96266.69;10471226;28;2020;-75
2022/06/18 01:50:06;;;;;;;;;;;17.40;99.90;;;16.21;67.77;96278.75;10477395;28;1899;-75
2022/06/18 01:55:10;;;;;;;;;;;17.20;99.90;;;16.11;68.40;96268.09;10468884;28;1970;-74
2022/06/18 02:00:13;;;;;;;;;;;17.10;99.90;;;16.10;69.16;96257.53;10471605;28;2192;-75
2022/06/18 02:05:16;;;;;;;;;;;17.10;99.90;;;16.02;69.17;96253.56;10472791;28;1983;-74
2022/06/18 02:10:19;;;;;;;;;;;17.00;99.90;;;15.97;69.60;96248.25;10473416;28;1951;-74
2022/06/18 02:15:22;;;;;;;;;;;17.10;99.90;;;15.95;70.28;96247.72;10475286;28;2105;-74
2022/06/18 02:20:25;;;;;;;;;;;16.90;99.90;;;15.96;70.52;96243.91;10482281;28;1962;-74
2022/06/18 02:25:28;;;;;;;;;;;16.90;99.90;;;15.95;70.03;96239.59;10474340;28;1971;-74
2022/06/18 02:30:31;;;;;;;;;;;17.00;99.90;;;15.83;70.35;96241.94;10479121;28;1954;-74
2022/06/18 02:35:34;;;;;;;;;;;16.90;99.90;;;15.75;70.83;96239.91;10477002;28;1980;-75
2022/06/18 02:40:37;;;;;;;;;;;16.90;99.90;;;15.73;71.52;96242.13;10474723;28;2003;-75
2022/06/18 02:45:40;;;;;;;;;;;16.80;99.90;;;15.67;71.63;96238.69;10477070;28;2114;-74
2022/06/18 02:50:44;;;;;;;;;;;16.80;99.90;;;15.64;71.84;96242.78;10481847;28;1936;-74
2022/06/18 02:55:47;;;;;;;;;;;16.70;99.90;;;15.63;72.33;96243.88;10472973;28;2156;-74
2022/06/18 03:00:52;;;;;;;;;;;16.70;99.90;;;15.60;72.52;96236.31;10477942;28;2053;-74
2022/06/18 03:05:55;;;;;;;;;;;16.70;99.90;;;15.54;72.92;96237.50;10475925;28;1954;-74
2022/06/18 03:16:19;;;;;;;;;;;16.70;99.90;;;15.76;72.46;96233.41;10476264;28;1962;-75
2022/06/18 03:21:22;;;;;;;;;;;16.80;99.90;;;15.79;72.18;96238.25;10477390;28;1877;-74
2022/06/18 03:26:26;;;;;;;;;;;16.80;99.90;;;15.82;72.14;96233.03;10492385;28;1938;-74
2022/06/18 03:31:30;;;;;;;;;;;16.70;99.90;;;15.99;71.39;96231.69;10482456;28;1955;-75
2022/06/18 03:36:34;;;;;;;;;;;16.80;99.90;;;16.05;70.77;96235.91;10482068;28;2064;-74
2022/06/18 03:41:37;;;;;;;;;;;16.90;99.90;;;16.15;70.78;96233.00;10480408;28;1998;-75
2022/06/18 03:46:40;;;;;;;;;;;16.90;99.90;;;16.33;70.55;96226.72;10487024;28;1951;-74
2022/06/18 03:51:43;;;;;;;;;;;17.10;99.90;;;16.54;69.23;96231.78;10479493;28;1916;-74
2022/06/18 03:56:46;;;;;;;;;;;17.20;99.90;;;16.79;67.44;96223.16;10475157;28;2174;-74
2022/06/18 04:01:51;;;;;;;;;;;17.40;99.90;;;16.98;66.54;96221.16;10473651;28;2034;-73
2022/06/18 04:06:54;;;;;;;;;;;17.60;99.90;;;17.24;65.21;96220.59;10477392;28;1951;-74
2022/06/18 04:11:58;;;;;;;;;;;17.90;99.90;;;17.47;64.00;96210.59;10475876;28;1989;-74
2022/06/18 04:17:02;;;;;;;;;;;18.20;99.90;;;17.79;62.85;96210.41;10482305;28;1988;-74
2022/06/18 04:22:06;;;;;;;;;;;18.40;99.90;;;17.93;61.54;96206.81;10477367;28;1967;-75
2022/06/18 04:27:09;;;;;;;;;;;18.50;99.90;;;18.23;60.60;96208.78;10482496;28;1992;-74
2022/06/18 04:32:13;;;;;;;;;;;18.80;99.90;;;18.40;59.57;96201.81;10472064;28;2006;-75
2022/06/18 04:37:17;;;;;;;;;;;18.90;99.90;;;18.70;58.69;96200.19;10473674;28;1977;-74
2022/06/18 04:42:21;;;;;;;;;;;19.10;99.90;;;19.13;57.60;96203.06;10470968;28;1872;-75
2022/06/18 04:47:24;;;;;;;;;;;19.40;99.90;;;19.34;56.64;96209.53;10474914;28;1986;-75
2022/06/18 04:52:27;;;;;;;;;;;19.80;99.70;;;19.64;55.49;96204.25;10469974;28;1990;-74
2022/06/18 04:57:30;;;;;;;;;;;20.00;99.10;;;19.90;54.52;96210.50;10471167;28;1978;-75
2022/06/18 05:02:33;;;;;;;;;;;20.30;98.70;;;20.03;54.08;96199.72;10473509;28;1932;-75
2022/06/18 05:07:36;;;;;;;;;;;20.60;97.90;;;20.27;53.10;96202.72;10477686;28;1978;-73
2022/06/18 05:12:40;;;;;;;;;;;20.80;97.40;;;20.39;52.08;96202.06;10472262;28;1872;-74
2022/06/18 05:17:44;;;;;;;;;;;21.50;96.80;;;20.73;51.54;96203.88;10477043;28;2291;-75
2022/06/18 05:22:47;;;;;;;;;;;21.20;96.20;;;21.05;51.29;96205.97;10468892;28;2014;-73
2022/06/18 05:27:50;;;;;;;;;;;21.40;96.20;;;21.36;50.07;96207.59;10473592;28;1959;-74
2022/06/18 05:32:53;;;;;;;;;;;21.70;95.20;;;21.69;49.31;96204.13;10468016;28;1927;-73
2022/06/18 05:37:56;;;;;;;;;;;22.00;95.00;;;21.99;48.50;96202.91;10479299;28;2005;-75
2022/06/18 05:43:00;;;;;;;;;;;22.30;94.30;;;22.26;47.52;96207.00;10467759;28;1849;-76
2022/06/18 05:48:02;;;;;;;;;;;22.60;93.30;;;22.54;45.32;96207.22;10467630;28;1921;-74
2022/06/18 05:53:05;;;;;;;;;;;22.90;91.90;;;22.78;45.57;96211.13;10477416;28;2017;-75
2022/06/18 05:58:09;;;;;;;;;;;23.10;91.70;;;23.01;43.28;96208.75;10475395;28;1914;-75
2022/06/18 06:03:12;;;;;;;;;;;23.40;89.70;;;23.13;43.21;96206.00;10481638;28;1825;-75
2022/06/18 06:08:15;;;;;;;;;;;23.50;89.30;;;23.48;42.57;96206.31;10483866;28;1796;-75
2022/06/18 06:13:19;;;;;;;;;;;23.80;88.80;;;23.75;42.76;96204.78;10478980;28;1899;-75
2022/06/18 06:18:22;;;;;;;;;;;24.00;88.90;;;24.20;41.10;96212.75;10483039;28;1913;-74
2022/06/18 06:23:25;;;;;;;;;;;24.40;93.20;;;24.22;40.92;96207.69;10476121;28;1867;-74
2022/06/18 06:28:29;;;;;;;;;;;24.70;87.70;;;24.46;41.48;96209.53;10491863;28;1961;-74
2022/06/18 06:33:32;;;;;;;;;;;24.90;87.90;;;24.80;41.25;96202.53;10480995;28;2004;-75
2022/06/18 06:38:37;;;;;;;;;;;25.20;87.40;;;25.00;41.18;96208.13;10478118;28;1914;-73
2022/06/18 06:43:41;;;;;;;;;;;25.30;87.10;;;25.06;39.69;96201.22;10474768;28;1882;-73
2022/06/18 06:48:44;;;;;;;;;;;25.60;85.80;;;25.39;37.07;96202.81;10474146;28;1895;-74
2022/06/18 06:53:47;;;;;;;;;;;25.70;83.40;;;25.67;37.50;96192.41;10484902;28;1782;-75
2022/06/18 06:58:51;;;;;;;;;;;25.90;83.20;;;25.76;36.07;96200.47;10479093;28;1992;-75
2022/06/18 07:03:54;;;;;;;;;;;26.20;87.80;;;26.37;36.13;96196.97;10479424;28;1855;-75
2022/06/18 07:08:58;;;;;;;;;;;26.40;86.80;;;26.16;35.81;96186.34;10481437;28;1792;-75
2022/06/18 07:14:01;;;;;;;;;;;26.60;85.30;;;26.65;33.84;96189.25;10476546;28;1875;-75
2022/06/18 07:19:04;;;;;;;;;;;26.80;81.00;;;26.32;34.59;96177.97;10481369;28;1987;-75
2022/06/18 07:24:07;;;;;;;;;;;27.00;82.40;;;26.60;33.44;96169.47;10484127;28;1873;-75
2022/06/18 07:29:10;;;;;;;;;;;26.90;81.70;;;26.43;33.02;96172.69;10478575;28;2108;-74
2022/06/18 07:34:14;;;;;;;;;;;27.00;80.40;;;26.88;32.93;96163.63;10478902;28;1931;-74
2022/06/18 07:39:18;;;;;;;;;;;27.10;80.20;;;26.70;32.12;96154.25;10477925;28;2090;-74
2022/06/18 07:44:21;;;;;;;;;;;27.20;77.90;;;27.26;31.18;96143.34;10497461;28;2013;-74
2022/06/18 07:49:25;;;;;;;;;;;27.60;86.20;;;27.58;30.42;96143.00;10473147;28;1898;-75
2022/06/18 07:54:29;;;;;;;;;;;;;;;27.84;29.40;96136.63;10476373;28;1818;-74
2022/06/18 07:59:32;;;;;;;;;;;28.20;87.10;;;27.96;31.06;96139.94;10475566;28;1918;-74
2022/06/18 08:04:36;;;;;;;;;;;28.30;79.20;;;28.22;28.74;96132.72;10477527;28;1951;-75
2022/06/18 08:09:39;;;;;;;;;;;28.50;73.90;;;28.48;29.16;96129.03;10471649;28;1819;-75
2022/06/18 08:14:42;;;;;;;;;;;28.70;73.70;;;28.45;29.75;96127.84;10474908;28;2196;-75
2022/06/18 08:19:45;;;;;;;;;;;28.90;73.80;;;28.55;29.19;96129.09;10478633;28;2381;-74
2022/06/18 08:24:48;;;;;;;;;;;28.90;73.10;;;28.73;27.39;96119.00;10480307;28;2156;-74
2022/06/18 08:29:51;;;;;;;;;;;29.00;72.30;;;28.76;27.59;96111.91;10483495;28;1857;-74
2022/06/18 08:34:55;;;;;;;;;;;29.20;72.10;;;28.90;27.99;96114.78;10473351;28;1961;-74
2022/06/18 08:39:58;;;;;;;;;;;29.70;71.70;;;28.88;26.78;96114.34;10473979;28;2256;-74
2022/06/18 08:45:01;;;;;;;;;;;29.40;69.70;;;29.23;25.75;96107.50;10478083;28;2268;-74
2022/06/18 08:50:04;;;;;;;;;;;29.50;68.90;;;29.27;26.45;96103.59;10473449;28;1876;-74
2022/06/18 08:55:08;;;;;;;;;;;29.70;69.30;;;29.16;25.83;96101.94;10475055;28;1863;-75
2022/06/18 09:00:11;;;;;;;;;;;29.60;68.60;;;29.43;26.51;96105.25;10481001;28;1987;-75
2022/06/18 09:05:15;;;;;;;;;;;29.70;69.30;;;29.53;24.41;96094.25;10475032;28;1833;-75
2022/06/18 09:10:18;;;;;;;;;;;30.00;67.40;;;29.24;25.09;96098.81;10474953;28;1885;-75
2022/06/18 09:15:21;;;;;;;;;;;29.80;67.10;;;29.50;26.47;96094.19;10474683;28;1948;-75
2022/06/18 09:20:24;;;;;;;;;;;29.80;68.30;;;29.41;24.66;96080.72;10474151;28;1925;-75
2022/06/18 09:25:28;;;;;;;;;;;30.00;67.00;;;29.53;26.79;96085.16;10472944;28;1886;-75
2022/06/18 09:30:31;;;;;;;;;;;30.10;69.60;;;29.55;27.00;96089.13;10475477;28;1769;-74
2022/06/18 09:35:34;;;;;;;;;;;30.10;69.50;;;29.83;25.97;96090.41;10480517;28;1774;-75
2022/06/18 09:40:37;;;;;;;;;;;30.20;69.20;;;29.32;26.71;96088.56;10477518;28;1966;-75
2022/06/18 09:45:43;;;;;;;;;;;30.10;68.90;;;29.86;26.05;96086.84;10477441;28;1888;-74
2022/06/18 09:50:45;;;;;;;;;;;30.30;99.90;;;30.04;25.59;96084.94;10473348;28;1918;-75
2022/06/18 09:55:49;;;;;;;;;;;30.40;89.60;;;29.06;26.42;96089.59;10471873;28;2014;-76
2022/06/18 10:00:51;;;;;;;;;;;30.20;79.70;;;29.50;26.23;96072.84;10482332;28;2000;-75
2022/06/18 10:11:15;;;;;;;;;;;30.00;76.70;;;29.63;24.18;96066.97;10471891;28;1885;-74
2022/06/18 10:16:18;;;;;;;;;;;30.20;74.10;;;30.02;23.85;96062.34;10477370;28;1778;-74
2022/06/18 10:21:21;;;;;;;;;;;30.40;73.10;;;29.81;24.19;96053.97;10470077;28;1930;-75
2022/06/18 10:26:23;;;;;;;;;;;30.50;72.00;;;29.82;24.24;96050.81;10478682;28;1934;-74
2022/06/18 10:31:26;;;;;;;;;;;30.50;70.30;;;30.16;23.78;96039.44;10468456;28;1889;-74
2022/06/18 10:36:30;;;;;;;;;;;30.80;68.00;;;30.40;23.08;96046.19;10473075;28;1770;-74
2022/06/18 10:41:33;;;;;;;;;;;31.00;66.70;;;31.80;21.84;96041.16;10468774;28;1894;-73
2022/06/18 10:46:36;;;;;;;;;;;32.30;78.50;;;31.87;20.92;96035.56;10469166;28;1936;-72
2022/06/18 10:51:39;;;;;;;;;;;33.20;72.00;;;32.06;21.48;96032.25;10484395;28;1810;-73
2022/06/18 10:56:42;;;;;;;;;;;33.50;68.50;;;33.15;20.64;96028.19;10475717;28;1863;-75
2022/06/18 11:01:46;;;;;;;;;;;34.20;60.60;;;33.54;19.43;96023.00;10478091;28;1995;-74
2022/06/18 11:06:49;;;;;;;;;;;35.00;60.30;;;33.66;20.36;96018.84;10477097;28;1788;-73
2022/06/18 11:11:52;;;;;;;;;;;35.70;59.40;;;33.33;19.52;96014.84;10479887;28;1873;-73
2022/06/18 11:16:55;;;;;;;;;;;35.70;57.40;;;32.71;20.08;96022.25;10481261;28;1895;-73
2022/06/18 11:21:58;;;;;;;;;;;35.00;58.10;;;32.50;19.90;96017.66;10482736;28;1979;-73
2022/06/18 11:27:01;;;;;;;;;;;34.70;57.50;;;32.92;21.07;96010.13;10482841;28;1897;-74
2022/06/18 11:32:05;;;;;;;;;;;34.90;58.80;;;32.09;21.21;96009.22;10474569;28;1840;-73
2022/06/18 11:37:08;;;;;;;;;;;34.30;58.10;;;31.73;21.80;95998.28;10480895;28;1875;-74
2022/06/18 11:42:11;;;;;;;;;;;33.60;58.60;;;30.93;21.42;95990.66;10480983;28;2005;-75
2022/06/18 11:47:14;;;;;;;;;;;32.60;58.00;;;31.26;20.69;95983.06;10479111;28;1866;-74
2022/06/18 11:52:18;;;;;;;;;;;32.00;59.00;;;31.33;21.93;95985.00;10470256;28;1853;-74
2022/06/18 11:57:22;;;;;;;;;;;32.10;60.00;;;31.41;21.41;95981.78;10474393;28;1919;-74
2022/06/18 12:02:25;;;;;;;;;;;32.30;59.00;;;31.42;22.33;95977.81;10493052;28;1937;-75
2022/06/18 12:07:28;;;;;;;;;;;32.20;60.10;;;31.79;20.82;95968.09;10474125;28;1845;-75
2022/06/18 12:12:31;;;;;;;;;;;32.50;58.60;;;31.81;20.11;95960.16;10471262;28;1810;-75
2022/06/18 12:17:34;;;;;;;;;;;32.60;58.10;;;31.88;22.79;95948.22;10465742;28;1875;-75
2022/06/18 12:22:37;;;;;;;;;;;32.60;60.00;;;32.25;20.99;95948.28;10473905;28;1910;-74
2022/06/18 12:27:40;;;;;;;;;;;32.90;58.70;;;32.42;21.22;95940.22;10471527;28;1899;-75
2022/06/18 12:32:43;;;;;;;;;;;33.10;59.40;;;32.53;19.77;95935.34;10474095;28;1975;-75
2022/06/18 12:37:46;;;;;;;;;;;33.30;58.10;;;32.64;21.69;95938.00;10474328;28;2192;-76
2022/06/18 12:42:50;;;;;;;;;;;33.40;59.90;;;32.57;20.57;95933.31;10470374;28;1973;-75
2022/06/18 12:47:52;;;;;;;;;;;33.30;58.40;;;32.26;20.91;95919.28;10472002;28;1832;-76
2022/06/18 12:52:55;;;;;;;;;;;33.30;58.40;;;32.24;21.03;95921.69;10490382;28;1750;-74
2022/06/18 12:58:00;;;;;;;;;;;33.00;58.80;;;32.47;22.08;95921.09;10484423;28;1890;-75
2022/06/18 13:03:03;;;;;;;;;;;33.20;59.90;;;32.09;22.67;95913.88;10469817;28;2059;-75
2022/06/18 13:08:05;;;;;;;;;;;33.00;60.30;;;32.07;22.56;95910.72;10475499;28;1825;-74
2022/06/18 13:13:08;;;;;;;;;;;33.00;60.40;;;32.10;22.46;95888.44;10471385;28;1810;-75
2022/06/18 13:18:12;;;;;;;;;;;32.90;59.90;;;32.35;21.85;95893.00;10476845;28;1940;-76
2022/06/18 13:28:36;;;;;;;;;;;33.40;58.80;;;32.76;21.28;95884.59;10480800;28;1826;-76
2022/06/18 13:33:43;;;;;;;;;;;33.50;58.60;;;32.97;20.58;95870.47;10471499;28;1980;-76
2022/06/18 13:38:46;;;;;;;;;;;33.70;58.20;;;32.89;21.24;95859.81;10475843;28;2069;-76
2022/06/18 13:43:49;;;;;;;;;;;33.60;58.60;;;33.16;20.53;95852.31;10472083;28;1709;-76
2022/06/18 13:48:52;;;;;;;;;;;33.80;57.90;;;32.74;20.58;95843.28;10478444;28;1842;-75
2022/06/18 13:53:57;;;;;;;;;;;33.70;57.20;;;32.99;20.93;95836.63;10474531;28;1776;-76
2022/06/18 13:59:01;;;;;;;;;;;33.70;57.90;;;32.62;20.85;95829.13;10475816;28;1988;-75
2022/06/18 14:04:04;;;;;;;;;;;33.50;57.80;;;33.09;20.70;95816.22;10459005;28;1854;-75
2022/06/18 14:09:06;;;;;;;;;;;33.50;58.20;;;33.41;20.68;95806.63;10470065;28;1749;-76
2022/06/18 14:14:09;;;;;;;;;;;33.90;57.50;;;33.59;19.36;95801.53;10482053;28;2360;-75
2022/06/18 14:19:12;;;;;;;;;;;33.80;56.50;;;33.32;20.50;95801.53;10481910;28;1914;-74
2022/06/18 14:24:16;;;;;;;;;;;34.10;57.50;;;33.29;20.60;95789.25;10474833;28;1761;-75
2022/06/18 14:29:19;;;;;;;;;;;34.00;57.70;;;33.39;19.81;95787.53;10475076;28;1753;-75
2022/06/18 14:34:22;;;;;;;;;;;34.00;57.10;;;33.30;20.04;95779.69;10478878;28;1969;-75
2022/06/18 14:39:25;;;;;;;;;;;34.00;57.20;;;33.34;20.79;95772.06;10473785;28;1921;-76
2022/06/18 14:44:28;;;;;;;;;;;34.00;57.60;;;33.67;20.86;95766.78;10470558;28;1802;-76
2022/06/18 14:49:32;;;;;;;;;;;34.10;58.30;;;33.74;20.96;95766.66;10473393;28;1817;-76
2022/06/18 14:54:35;;;;;;;;;;;34.20;58.00;;;33.38;21.18;95752.50;10476069;28;1945;-76
2022/06/18 14:59:39;;;;;;;;;;;34.20;57.80;;;33.66;20.17;95747.66;10466810;28;1914;-75
2022/06/18 15:04:42;;;;;;;;;;;34.30;57.10;;;33.78;21.25;95750.63;10473793;28;1833;-75
2022/06/18 15:09:45;;;;;;;;;;;34.40;57.80;;;33.60;21.17;95741.81;10480456;28;1757;-75
2022/06/18 15:14:50;;;;;;;;;;;34.30;57.60;;;33.51;22.47;95734.00;10475775;28;1819;-72
2022/06/18 15:19:59;;;;;;;;;;;34.20;59.20;;;32.94;23.20;95729.28;10482410;28;1926;-73
2022/06/18 15:30:23;;;;;;;;;;;33.60;60.30;;;32.60;23.91;95707.09;10474564;28;1728;-75
2022/06/18 15:35:27;;;;;;;;;;;33.40;60.00;;;32.55;24.25;95708.34;10489510;28;1795;-75
2022/06/18 15:40:30;;;;;;;;;;;33.40;60.60;;;32.78;23.65;95706.84;10479948;28;1917;-75
2022/06/18 15:45:33;;;;;;;;;;;33.40;60.40;;;32.71;24.26;95699.41;10479190;28;1828;-75
2022/06/18 15:50:36;;;;;;;;;;;33.40;61.00;;;32.56;24.27;95692.44;10489691;28;1811;-76
2022/06/18 15:55:39;;;;;;;;;;;33.10;61.40;;;32.68;24.22;95691.88;10475133;28;1869;-76
2022/06/18 16:00:42;;;;;;;;;;;33.20;61.50;;;32.39;23.97;95690.69;10474184;28;1921;-75
2022/06/18 16:05:46;;;;;;;;;;;33.10;61.10;;;32.15;24.55;95684.22;10469225;28;3574;-75
2022/06/18 16:10:49;;;;;;;;;;;32.90;61.10;;;31.92;25.20;95682.09;10466853;28;1793;-77
2022/06/18 16:15:56;;;;;;;;;;;32.60;61.70;;;31.56;25.30;95676.91;10481923;28;1809;-75
2022/06/18 16:20:59;;;;;;;;;;;32.40;62.00;;;31.39;26.32;95675.09;10502997;28;1950;-75
2022/06/18 16:26:02;;;;;;;;;;;32.10;62.70;;;31.05;26.26;95674.94;10473733;28;1843;-75
2022/06/18 16:31:05;;;;;;;;;;;31.80;62.40;;;30.96;26.81;95667.09;10470758;28;1893;-75
2022/06/18 16:36:11;;;;;;;;;;;31.60;63.00;;;30.82;26.96;95656.09;10470191;28;1810;-76
2022/06/18 16:41:13;;;;;;;;;;;31.40;63.70;;;30.76;26.94;95668.84;10480053;28;1979;-75
2022/06/18 16:46:17;;;;;;;;;;;31.30;63.90;;;30.55;26.64;95664.19;10472500;28;1827;-75
2022/06/18 16:51:21;;;;;;;;;;;31.20;63.50;;;30.43;27.26;95668.22;10478376;28;1978;-75
2022/06/18 16:56:24;;;;;;;;;;;31.10;63.80;;;30.42;26.84;95661.09;10476669;28;1860;-75
2022/06/18 17:01:27;;;;;;;;;;;30.90;63.40;;;30.27;27.43;95665.91;10470781;28;1985;-75
2022/06/18 17:06:30;;;;;;;;;;;30.80;63.80;;;30.08;28.24;95658.84;10465896;28;1870;-75
2022/06/18 17:11:33;;;;;;;;;;;30.80;64.50;;;30.05;28.72;95659.66;10471155;28;1853;-75
2022/06/18 17:16:37;;;;;;;;;;;30.70;65.60;;;29.79;28.91;95649.88;10473331;28;1853;-74
2022/06/18 17:21:40;;;;;;;;;;;30.50;65.50;;;29.66;29.59;95643.19;10469442;28;1983;-75
2022/06/18 17:32:04;;;;;;;;;;;30.30;67.00;;;29.65;30.47;95638.84;10475365;28;1995;-75
2022/06/18 17:37:08;;;;;;;;;;;30.20;67.70;;;29.46;30.44;95626.19;10476950;28;1810;-76
2022/06/18 17:42:11;;;;;;;;;;;30.10;67.80;;;29.43;31.02;95632.53;10472031;28;1942;-75
2022/06/18 17:47:15;;;;;;;;;;;30.00;68.60;;;29.23;31.59;95632.16;10481145;28;1780;-75
2022/06/18 17:52:19;;;;;;;;;;;29.90;68.30;;;29.07;32.11;95632.59;10481169;28;1819;-75
2022/06/18 17:57:23;;;;;;;;;;;29.70;69.00;;;28.94;31.79;95623.09;10480634;28;1986;-74
2022/06/18 18:02:26;;;;;;;;;;;29.60;69.10;;;28.83;32.20;95625.06;10472536;28;1977;-76
2022/06/18 18:07:30;;;;;;;;;;;29.50;69.50;;;28.74;32.70;95619.13;10480521;28;1813;-75
2022/06/18 18:12:33;;;;;;;;;;;29.40;70.00;;;28.64;33.22;95617.16;10475973;28;1858;-75
2022/06/18 18:17:36;;;;;;;;;;;29.30;70.50;;;28.50;33.82;95618.72;10478401;28;1854;-74
2022/06/18 18:22:39;;;;;;;;;;;29.20;71.20;;;28.36;34.39;95612.38;10480366;28;1988;-75
2022/06/18 18:27:42;;;;;;;;;;;29.10;71.80;;;28.15;35.09;95616.66;10478287;28;1869;-75
2022/06/18 18:32:45;;;;;;;;;;;29.00;72.70;;;27.96;35.70;95612.25;10473655;28;2216;-75
2022/06/18 18:37:48;;;;;;;;;;;28.80;72.90;;;27.80;36.88;95606.25;10481689;28;1875;-75
2022/06/18 18:42:53;;;;;;;;;;;28.60;73.80;;;27.53;37.97;95607.69;10479544;28;1983;-75
2022/06/18 18:47:56;;;;;;;;;;;28.40;75.30;;;27.30;39.46;95608.00;10483634;28;1817;-75
2022/06/18 18:52:59;;;;;;;;;;;28.20;76.50;;;27.05;40.58;95607.81;10492406;28;1742;-76
2022/06/18 18:58:02;;;;;;;;;;;28.00;77.90;;;26.82;41.92;95611.56;10479102;28;1851;-75
2022/06/18 19:03:05;;;;;;;;;;;27.70;78.70;;;26.60;43.19;95605.09;10474228;28;2188;-75
2022/06/18 19:08:09;;;;;;;;;;;27.50;80.10;;;26.36;44.22;95611.94;10479362;28;1840;-75
2022/06/18 19:13:12;;;;;;;;;;;27.30;81.30;;;26.23;45.01;95616.13;10477247;28;1909;-75
2022/06/18 19:18:16;;;;;;;;;;;27.10;82.40;;;26.04;45.93;95613.56;10476395;28;1792;-75
2022/06/18 19:23:19;;;;;;;;;;;26.90;82.60;;;25.94;46.75;95615.03;10474698;28;1977;-75
2022/06/18 19:28:22;;;;;;;;;;;26.80;83.50;;;25.70;47.59;95621.78;10481928;28;1771;-75
2022/06/18 19:33:25;;;;;;;;;;;26.60;84.20;;;25.54;48.52;95622.00;10486304;28;1857;-74
2022/06/18 19:38:28;;;;;;;;;;;26.50;85.20;;;25.39;49.64;95627.72;10484037;28;1971;-74
2022/06/18 19:43:32;;;;;;;;;;;26.30;86.10;;;25.18;50.13;95628.97;10477255;28;1902;-74
2022/06/18 19:48:38;;;;;;;;;;;26.00;86.70;;;25.08;51.08;95624.13;10476772;28;1943;-75
2022/06/18 19:53:41;;;;;;;;;;;25.90;86.90;;;24.99;51.22;95626.28;10468150;28;2209;-74
2022/06/18 19:58:47;;;;;;;;;;;25.90;87.50;;;24.85;51.61;95628.84;10471646;28;2092;-74
2022/06/18 20:03:50;;;;;;;;;;;25.70;87.60;;;24.68;52.69;95630.13;10474612;28;1949;-75
2022/06/18 20:08:54;;;;;;;;;;;25.60;88.40;;;24.64;52.27;95630.09;10476519;28;1915;-75
2022/06/18 20:13:57;;;;;;;;;;;25.50;88.60;;;24.56;52.05;95628.38;10472103;28;1787;-75
2022/06/18 20:19:03;;;;;;;;;;;25.30;88.60;;;24.44;52.34;95631.31;10469438;28;1887;-76
2022/06/18 20:24:06;;;;;;;;;;;25.30;88.90;;;24.27;52.38;95616.84;10472427;28;1987;-75
2022/06/18 20:29:12;;;;;;;;;;;25.20;89.00;;;24.33;51.54;95628.34;10474102;28;1841;-75
2022/06/18 20:34:15;;;;;;;;;;;25.10;88.70;;;24.23;51.42;95626.97;10475368;28;1814;-73
2022/06/18 20:39:18;;;;;;;;;;;25.10;88.60;;;24.11;51.19;95613.44;10490520;28;1822;-74
2022/06/18 20:44:22;;;;;;;;;;;25.00;88.50;;;24.10;50.20;95613.78;10479402;28;1977;-74
2022/06/18 20:49:25;;;;;;;;;;;24.90;88.00;;;24.05;49.90;95614.06;10475252;28;2018;-73
2022/06/18 20:59:49;;;;;;;;;;;24.80;87.60;;;23.81;49.75;95604.22;10468297;28;1896;-74
2022/06/18 21:04:52;;;;;;;;;;;24.70;87.50;;;23.75;49.95;95606.47;10470443;28;1894;-75
2022/06/18 21:09:59;;;;;;;;;;;24.60;87.60;;;23.73;48.79;95598.59;10464749;28;1846;-75
2022/06/18 21:15:02;;;;;;;;;;;24.60;86.90;;;23.66;48.69;95601.19;10469117;28;1825;-74
2022/06/18 21:20:05;;;;;;;;;;;24.50;86.70;;;23.66;48.56;95592.16;10468101;28;1909;-75
2022/06/18 21:25:08;;;;;;;;;;;24.50;86.70;;;23.51;48.89;95588.31;10476286;28;1937;-74
2022/06/18 21:30:11;;;;;;;;;;;24.30;86.80;;;23.35;48.98;95582.91;10466722;28;1877;-74
2022/06/18 21:40:35;;;;;;;;;;;24.10;87.90;;;23.46;48.37;95572.13;10465654;28;2007;-70
2022/06/18 21:45:38;;;;;;;;;;;24.10;88.00;;;23.65;47.03;95572.16;10464517;28;1987;-72
2022/06/18 21:50:42;;;;;;;;;;;24.30;88.10;;;23.61;46.32;95570.50;10468176;28;1864;-71
2022/06/18 21:55:45;;;;;;;;;;;24.20;87.50;;;23.54;47.10;95562.09;10467943;28;1825;-71
2022/06/18 22:00:48;;;;;;;;;;;24.30;88.30;;;23.48;46.59;95558.88;10466803;28;1864;-70
2022/06/18 22:05:52;;;;;;;;;;;24.20;88.50;;;23.54;46.39;95556.59;10471047;28;1921;-72
2022/06/18 22:10:55;;;;;;;;;;;24.10;89.30;;;23.37;46.68;95564.13;10467541;28;1853;-71
2022/06/18 22:21:18;;;;;;;;;;;24.00;91.40;;;23.29;46.86;95551.44;10467455;28;1964;-71
2022/06/18 22:26:21;;;;;;;;;;;24.00;91.30;;;23.18;47.55;95545.72;10470211;28;1796;-70
2022/06/18 22:31:25;;;;;;;;;;;23.90;92.20;;;23.03;48.15;95535.63;10474688;28;1736;-71
2022/06/18 22:36:28;;;;;;;;;;;23.80;92.50;;;22.90;48.44;95528.66;10482020;28;1874;-71
2022/06/18 22:41:38;;;;;;;;;;;23.70;93.20;;;22.79;48.42;95520.19;10475088;28;1975;-70
2022/06/18 22:46:41;;;;;;;;;;;23.50;93.10;;;22.87;49.13;95513.72;10478196;28;1857;-71
2022/06/18 22:51:47;;;;;;;;;;;23.40;93.80;;;22.59;49.60;95510.34;10484776;28;1586;-70
2022/06/18 22:56:50;;;;;;;;;;;23.40;93.80;;;22.38;49.82;95508.69;10475530;28;1836;-70
2022/06/18 23:01:55;;;;;;;;;;;23.30;94.50;;;22.36;50.26;95499.25;10476758;28;2268;-70
2022/06/18 23:06:59;;;;;;;;;;;23.10;95.10;;;22.31;50.39;95486.59;10482407;28;1817;-70
2022/06/18 23:12:02;;;;;;;;;;;23.10;96.00;;;22.44;49.61;95478.28;10474039;28;1826;-71
2022/06/18 23:17:04;;;;;;;;;;;23.00;95.60;;;22.26;49.70;95472.41;10469709;28;1885;-72
2022/06/18 23:22:07;;;;;;;;;;;23.00;95.30;;;22.26;50.23;95464.97;10487305;28;1996;-71
2022/06/18 23:27:10;;;;;;;;;;;23.00;95.60;;;22.23;49.68;95448.47;10475824;28;1872;-71
2022/06/18 23:32:13;;;;;;;;;;;23.00;95.40;;;21.95;50.89;95449.38;10473114;28;2019;-70
2022/06/18 23:37:16;;;;;;;;;;;22.90;96.20;;;22.07;51.18;95453.94;10470645;28;1832;-73
2022/06/18 23:42:19;;;;;;;;;;;22.80;97.10;;;21.78;52.17;95447.00;10474222;28;1914;-70
2022/06/18 23:47:22;;;;;;;;;;;22.70;97.40;;;21.71;52.35;95438.59;10476082;28;1845;-73
2022/06/18 23:52:25;;;;;;;;;;;22.60;98.30;;;21.58;53.28;95433.22;10475449;28;1830;-71
2022/06/18 23:57:28;;;;;;;;;;;22.50;99.50;;;21.54;53.62;95432.31;10476270;28;1851;-71
